createdAt,value
2018-01-26T00:02:21.982Z,14.00
2018-01-26T00:04:51.055Z,14.00
2018-01-26T00:07:20.005Z,14.00
2018-01-26T00:09:48.740Z,14.00
2018-01-26T00:12:17.427Z,14.00
2018-01-26T00:14:47.134Z,14.00
2018-01-26T00:17:16.037Z,14.00
2018-01-26T00:19:45.019Z,14.00
2018-01-26T00:22:14.115Z,14.00
2018-01-26T00:24:43.011Z,13.90
2018-01-26T00:27:11.904Z,13.80
2018-01-26T00:29:41.570Z,13.80
2018-01-26T00:32:10.299Z,13.80
2018-01-26T00:34:39.036Z,13.80
2018-01-26T00:37:08.177Z,13.80
2018-01-26T00:39:37.123Z,13.80
2018-01-26T00:42:05.968Z,13.80
2018-01-26T00:44:34.750Z,13.80
2018-01-26T00:47:03.437Z,13.80
2018-01-26T00:49:32.536Z,13.80
2018-01-26T00:52:01.421Z,13.80
2018-01-26T00:54:30.210Z,13.70
2018-01-26T00:57:06.032Z,13.70
2018-01-26T00:59:34.750Z,13.60
2018-01-26T01:02:03.437Z,13.60
2018-01-26T01:04:32.227Z,13.60
2018-01-26T01:07:00.912Z,13.60
2018-01-26T01:09:30.218Z,13.60
2018-01-26T01:11:59.107Z,13.60
2018-01-26T01:14:28.200Z,13.50
2018-01-26T01:16:57.032Z,13.50
2018-01-26T01:19:25.985Z,13.40
2018-01-26T01:21:54.718Z,13.40
2018-01-26T01:24:24.279Z,13.40
2018-01-26T01:26:53.267Z,13.40
2018-01-26T01:29:22.116Z,13.50
2018-01-26T01:31:50.794Z,13.50
2018-01-26T01:34:19.479Z,13.60
2018-01-26T01:36:48.324Z,13.60
2018-01-26T01:39:17.109Z,13.60
2018-01-26T01:41:46.006Z,13.60
2018-01-26T01:46:48.906Z,13.60
2018-01-26T01:49:17.593Z,11.20
2018-01-26T01:51:46.585Z,13.60
2018-01-26T01:54:15.375Z,13.60
2018-01-26T01:56:44.266Z,13.60
2018-01-26T01:59:12.972Z,13.40
2018-01-26T02:01:42.347Z,13.30
2018-01-26T02:04:11.170Z,13.20
2018-01-26T02:06:40.254Z,13.20
2018-01-26T02:09:09.335Z,13.10
2018-01-26T02:11:38.019Z,13.10
2018-01-26T02:14:06.909Z,13.10
2018-01-26T02:16:35.802Z,13.10
2018-01-26T02:19:04.693Z,13.10
2018-01-26T02:21:33.791Z,13.10
2018-01-26T02:24:02.681Z,13.20
2018-01-26T02:26:31.366Z,13.20
2018-01-26T02:29:00.053Z,13.20
2018-01-26T02:31:29.151Z,13.10
2018-01-26T02:33:58.455Z,13.10
2018-01-26T02:36:27.340Z,13.10
2018-01-26T02:38:58.543Z,13.20
2018-01-26T02:41:27.379Z,13.20
2018-01-26T02:43:56.059Z,13.20
2018-01-26T02:46:24.952Z,13.20
2018-01-26T02:48:53.845Z,13.20
2018-01-26T02:51:22.528Z,13.30
2018-01-26T02:53:51.422Z,13.30
2018-01-26T02:56:20.107Z,13.30
2018-01-26T02:58:48.790Z,13.30
2018-01-26T03:01:17.424Z,13.30
2018-01-26T03:03:46.164Z,13.20
2018-01-26T03:06:14.849Z,13.20
2018-01-26T03:08:43.744Z,13.20
2018-01-26T03:11:12.444Z,13.20
2018-01-26T03:13:41.321Z,13.20
2018-01-26T03:16:10.210Z,13.20
2018-01-26T03:18:39.005Z,13.20
2018-01-26T03:21:07.685Z,13.20
2018-01-26T03:23:36.678Z,13.20
2018-01-26T03:26:05.469Z,13.20
2018-01-26T03:28:34.358Z,13.20
2018-01-26T03:31:03.249Z,13.30
2018-01-26T03:33:32.040Z,13.30
2018-01-26T03:36:00.723Z,13.30
2018-01-26T03:38:29.615Z,13.20
2018-01-26T03:40:58.303Z,13.20
2018-01-26T03:43:27.000Z,13.20
2018-01-26T03:45:55.832Z,13.20
2018-01-26T03:48:24.566Z,13.20
2018-01-26T03:53:45.078Z,13.10
2018-01-26T03:56:13.969Z,13.10
2018-01-26T03:58:42.763Z,13.10
2018-01-26T04:01:11.598Z,15.50
2018-01-26T04:03:40.360Z,13.00
2018-01-26T04:06:09.798Z,12.90
2018-01-26T04:08:38.738Z,12.90
2018-01-26T04:11:07.633Z,13.00
2018-01-26T04:13:36.525Z,12.90
2018-01-26T04:16:05.410Z,13.00
2018-01-26T04:18:34.195Z,13.00
2018-01-26T04:21:02.990Z,13.00
2018-01-26T04:23:31.879Z,13.10
2018-01-26T04:26:00.567Z,13.10
2018-01-26T04:28:29.251Z,13.10
2018-01-26T04:30:58.139Z,13.10
2018-01-26T04:33:26.834Z,13.10
2018-01-26T04:35:55.662Z,13.20
2018-01-26T04:38:25.442Z,13.20
2018-01-26T04:40:54.330Z,13.20
2018-01-26T04:43:23.006Z,13.00
2018-01-26T04:45:51.634Z,12.90
2018-01-26T04:48:21.302Z,12.90
2018-01-26T04:50:49.987Z,12.80
2018-01-26T04:53:19.696Z,12.90
2018-01-26T04:55:48.389Z,12.90
2018-01-26T04:58:17.079Z,12.80
2018-01-26T05:00:45.966Z,12.80
2018-01-26T05:03:14.847Z,12.80
2018-01-26T05:05:43.535Z,12.80
2018-01-26T05:08:12.432Z,12.90
2018-01-26T05:10:41.219Z,12.90
2018-01-26T05:13:09.906Z,12.40
2018-01-26T05:15:38.690Z,12.00
2018-01-26T05:18:07.375Z,11.80
2018-01-26T05:20:36.063Z,11.60
2018-01-26T05:23:04.954Z,11.40
2018-01-26T05:25:33.643Z,11.20
2018-01-26T05:28:02.532Z,11.00
2018-01-26T05:30:31.421Z,11.00
2018-01-26T11:15:18.893Z,9.70
2018-01-26T11:17:47.565Z,9.60
2018-01-26T11:20:16.251Z,9.60
2018-01-26T11:22:45.141Z,9.70
2018-01-26T11:25:13.828Z,9.80
2018-01-26T11:27:42.519Z,9.80
2018-01-26T11:30:11.300Z,9.80
2018-01-26T11:32:40.196Z,9.70
2018-01-26T11:35:08.758Z,9.70
2018-01-26T11:37:37.569Z,9.60
2018-01-26T11:40:06.459Z,9.70
2018-01-26T11:42:35.345Z,9.60
2018-01-26T11:45:04.248Z,9.60
2018-01-26T11:47:33.029Z,9.60
2018-01-26T11:50:01.716Z,9.60
2018-01-26T11:52:30.398Z,9.60
2018-01-26T11:54:59.087Z,9.70
2018-01-26T11:57:27.846Z,9.60
2018-01-26T11:59:56.763Z,9.60
2018-01-26T12:02:25.653Z,9.60
2018-01-26T12:04:54.339Z,9.60
2018-01-26T12:07:23.148Z,9.60
2018-01-26T12:09:51.744Z,9.60
2018-01-26T12:12:20.706Z,9.50
2018-01-26T12:14:49.396Z,9.40
2018-01-26T12:17:18.180Z,9.50
2018-01-26T12:19:47.073Z,9.50
2018-01-26T12:22:15.859Z,9.60
2018-01-26T12:24:44.755Z,9.60
2018-01-26T12:27:13.770Z,9.60
2018-01-26T12:29:42.532Z,9.60
2018-01-26T12:32:11.117Z,9.60
2018-01-26T12:34:40.013Z,9.70
2018-01-26T12:37:08.847Z,9.70
2018-01-26T12:39:37.587Z,9.60
2018-01-26T12:44:40.793Z,9.70
2018-01-26T12:47:09.596Z,9.70
2018-01-26T12:49:38.269Z,9.60
2018-01-26T12:52:07.682Z,9.60
2018-01-26T12:54:36.266Z,9.60
2018-01-26T12:57:04.901Z,9.50
2018-01-26T12:59:34.285Z,9.60
2018-01-26T13:02:03.748Z,9.60
2018-01-26T13:04:32.798Z,9.60
2018-01-26T13:07:01.634Z,9.50
2018-01-26T13:09:30.320Z,9.60
2018-01-26T13:11:59.108Z,9.60
2018-01-26T13:14:27.731Z,9.60
2018-01-26T13:16:56.491Z,9.60
2018-01-26T13:19:25.099Z,9.60
2018-01-26T13:21:53.792Z,9.70
2018-01-26T13:24:23.355Z,9.60
2018-01-26T13:26:52.031Z,9.60
2018-01-26T13:29:20.835Z,9.60
2018-01-26T13:31:49.522Z,9.60
2018-01-26T13:34:18.208Z,9.60
2018-01-26T13:36:47.097Z,9.60
2018-01-26T13:39:15.992Z,9.60
2018-01-26T13:41:44.979Z,9.60
2018-01-26T13:44:13.837Z,9.60
2018-01-26T13:46:42.559Z,9.60
2018-01-26T13:49:11.460Z,9.60
2018-01-26T13:51:40.142Z,9.70
2018-01-26T13:54:08.822Z,9.70
2018-01-26T13:56:37.509Z,9.70
2018-01-26T13:59:06.400Z,9.70
2018-01-26T14:01:35.261Z,9.80
2018-01-26T14:04:04.590Z,9.70
2018-01-26T14:06:35.121Z,9.70
2018-01-26T14:09:04.006Z,9.70
2018-01-26T14:11:33.517Z,9.70
2018-01-26T14:14:02.408Z,9.70
2018-01-26T14:16:31.008Z,9.80
2018-01-26T14:18:59.780Z,9.70
2018-01-26T14:21:28.675Z,9.70
2018-01-26T14:23:57.362Z,9.60
2018-01-26T14:26:26.399Z,9.60
2018-01-26T14:28:55.556Z,9.70
2018-01-26T14:31:24.901Z,9.60
2018-01-26T14:33:53.957Z,9.60
2018-01-26T14:36:22.985Z,9.70
2018-01-26T14:38:51.812Z,9.60
2018-01-26T14:41:20.527Z,9.60
2018-01-26T14:43:49.408Z,9.60
2018-01-26T14:46:18.474Z,9.50
2018-01-26T14:48:47.506Z,9.50
2018-01-26T14:51:16.389Z,9.50
2018-01-26T14:53:46.373Z,9.50
2018-01-26T14:56:15.299Z,9.50
2018-01-26T14:58:44.395Z,9.60
2018-01-26T15:01:13.188Z,9.50
2018-01-26T15:03:41.875Z,9.60
2018-01-26T15:06:10.656Z,9.60
2018-01-26T15:08:39.675Z,9.60
2018-01-26T15:11:08.711Z,9.60
2018-01-26T15:13:37.522Z,9.60
2018-01-26T15:16:06.231Z,9.60
2018-01-26T15:18:34.925Z,9.50
2018-01-26T15:21:03.813Z,9.40
2018-01-26T15:23:32.586Z,9.30
2018-01-26T15:26:01.480Z,9.30
2018-01-26T15:28:30.581Z,9.30
2018-01-26T15:30:59.566Z,9.40
2018-01-26T15:33:28.426Z,9.30
2018-01-26T15:35:57.159Z,9.30
2018-01-26T15:38:26.106Z,9.30
2018-01-26T15:40:55.239Z,9.40
2018-01-26T15:43:24.122Z,9.40
2018-01-26T15:45:54.244Z,9.50
2018-01-26T15:48:23.146Z,9.50
2018-01-26T15:50:52.024Z,9.50
2018-01-26T15:53:20.867Z,9.50
2018-01-26T15:55:49.853Z,9.50
2018-01-26T15:58:19.289Z,9.60
2018-01-26T16:00:47.970Z,9.50
2018-01-26T16:03:16.787Z,9.60
2018-01-26T16:05:45.677Z,9.60
2018-01-26T16:08:14.556Z,9.60
2018-01-26T16:10:43.164Z,9.60
2018-01-26T16:13:11.957Z,9.70
2018-01-26T16:18:35.633Z,9.70
2018-01-26T16:21:04.938Z,9.70
2018-01-26T16:23:33.745Z,9.70
2018-01-26T16:26:02.410Z,9.70
2018-01-26T16:28:31.198Z,9.70
2018-01-26T16:31:00.086Z,9.70
2018-01-26T16:33:28.723Z,9.70
2018-01-26T16:35:57.315Z,9.70
2018-01-26T16:38:25.974Z,9.60
2018-01-26T16:40:54.580Z,9.60
2018-01-26T16:43:23.219Z,9.60
2018-01-26T16:45:52.104Z,9.60
2018-01-26T16:48:20.770Z,9.50
2018-01-26T16:50:49.418Z,9.50
2018-01-26T16:53:18.785Z,9.50
2018-01-26T16:55:47.639Z,9.40
2018-01-26T16:58:16.350Z,9.50
2018-01-26T17:00:45.036Z,9.50
2018-01-26T17:03:13.928Z,9.50
2018-01-26T17:05:42.560Z,9.50
2018-01-26T17:08:11.204Z,9.50
2018-01-26T17:10:39.826Z,9.60
2018-01-26T17:13:08.576Z,9.60
2018-01-26T17:15:37.302Z,9.60
2018-01-26T17:18:06.152Z,9.60
2018-01-26T17:20:34.942Z,9.60
2018-01-26T17:23:03.541Z,9.60
2018-01-26T17:25:32.148Z,9.60
2018-01-26T17:28:02.022Z,9.60
2018-01-26T17:33:10.182Z,9.60
2018-01-26T17:35:38.771Z,9.60
2018-01-26T17:38:07.423Z,9.60
2018-01-26T17:40:36.067Z,9.60
2018-01-26T17:43:04.739Z,9.60
2018-01-26T17:45:34.111Z,9.60
2018-01-26T17:48:02.745Z,9.60
2018-01-26T17:50:33.074Z,9.70
2018-01-26T17:53:01.770Z,9.70
2018-01-26T17:55:30.415Z,9.70
2018-01-26T17:57:59.088Z,9.80
2018-01-26T18:00:28.560Z,9.80
2018-01-26T18:02:57.250Z,9.80
2018-01-26T18:05:25.825Z,9.90
2018-01-26T18:07:54.517Z,9.80
2018-01-26T18:10:23.159Z,9.90
2018-01-26T18:12:52.615Z,9.90
2018-01-26T18:15:21.258Z,9.90
2018-01-26T18:17:49.878Z,9.90
2018-01-26T18:20:18.502Z,9.90
2018-01-26T18:22:47.060Z,9.80
2018-01-26T18:25:15.725Z,9.90
2018-01-26T18:27:44.534Z,9.80
2018-01-26T18:30:13.095Z,9.80
2018-01-26T18:32:41.808Z,9.90
2018-01-26T18:35:10.436Z,9.90
2018-01-26T18:37:39.879Z,9.90
2018-01-26T18:40:08.630Z,9.90
2018-01-26T18:42:37.267Z,9.90
2018-01-26T18:45:05.939Z,10.00
2018-01-26T18:47:34.605Z,10.00
2018-01-26T18:50:03.207Z,10.00
2018-01-26T18:52:31.874Z,9.90
2018-01-26T18:55:00.695Z,9.90
2018-01-26T18:57:29.300Z,9.90
2018-01-26T18:59:57.901Z,9.90
2018-01-26T19:02:26.637Z,9.90
2018-01-26T19:04:55.263Z,10.00
2018-01-26T19:07:24.737Z,10.00
2018-01-26T19:09:53.620Z,10.00
2018-01-26T19:12:22.262Z,10.00
2018-01-26T19:14:51.624Z,10.00
2018-01-26T19:17:20.265Z,10.00
2018-01-26T19:19:48.872Z,10.00
2018-01-26T19:22:17.665Z,10.00
2018-01-26T19:24:46.383Z,10.00
2018-01-26T19:27:15.005Z,9.90
2018-01-26T19:29:43.707Z,9.90
2018-01-26T19:32:12.409Z,10.00
2018-01-26T19:34:40.994Z,10.00
2018-01-26T19:37:09.594Z,9.90
2018-01-26T19:39:38.329Z,9.90
2018-01-26T19:42:07.685Z,10.00
2018-01-26T19:44:36.453Z,10.00
2018-01-26T19:47:05.139Z,10.00
2018-01-26T19:49:35.353Z,10.10
2018-01-26T19:52:04.034Z,10.00
2018-01-26T19:54:32.638Z,10.10
2018-01-26T19:57:01.426Z,10.10
2018-01-26T19:59:30.007Z,10.20
2018-01-26T20:01:58.601Z,10.30
2018-01-26T20:04:33.217Z,10.30
2018-01-26T20:07:19.314Z,10.30
2018-01-26T20:09:47.833Z,10.20
2018-01-26T20:12:16.473Z,10.20
2018-01-26T20:14:45.248Z,10.20
2018-01-26T20:17:13.942Z,10.30
2018-01-26T20:19:42.661Z,10.30
2018-01-26T20:22:11.317Z,10.40
2018-01-26T20:24:40.013Z,10.40
2018-01-26T20:27:08.697Z,10.40
2018-01-26T20:29:37.337Z,10.50
2018-01-26T20:32:05.937Z,10.40
2018-01-26T20:34:35.242Z,10.30
2018-01-26T20:37:03.882Z,10.20
2018-01-26T20:39:32.621Z,10.00
2018-01-26T20:42:01.277Z,10.00
2018-01-26T20:44:30.719Z,9.80
2018-01-26T20:46:59.293Z,9.80
2018-01-26T20:49:27.895Z,9.70
2018-01-26T20:51:56.551Z,9.70
2018-01-26T20:54:25.165Z,9.70
2018-01-26T20:56:53.958Z,9.70
2018-01-26T20:59:22.607Z,9.80
2018-01-26T21:01:51.372Z,9.80
2018-01-26T21:04:19.991Z,9.80
2018-01-26T21:06:48.621Z,9.70
2018-01-26T21:09:17.183Z,9.70
2018-01-26T21:11:45.804Z,9.70
2018-01-26T21:14:14.460Z,9.80
2018-01-26T21:16:43.071Z,9.80
2018-01-26T21:19:11.924Z,9.70
2018-01-26T21:21:40.557Z,9.70
2018-01-26T21:24:09.155Z,9.80
2018-01-26T21:26:38.614Z,9.70
2018-01-26T21:29:07.294Z,9.70
2018-01-26T21:31:36.222Z,9.70
2018-01-26T21:34:05.723Z,9.70
2018-01-26T21:36:34.358Z,9.80
2018-01-26T21:39:03.009Z,9.70
2018-01-26T21:41:31.743Z,9.70
2018-01-26T21:44:00.451Z,9.80
2018-01-26T21:46:29.115Z,9.80
2018-01-26T21:48:58.206Z,9.80
2018-01-26T21:51:26.882Z,9.90
2018-01-26T21:53:55.478Z,9.80
2018-01-26T21:56:24.122Z,9.90
2018-01-26T21:58:53.520Z,9.90
2018-01-26T22:01:22.258Z,9.90
2018-01-26T22:03:50.893Z,9.90
2018-01-26T22:06:25.186Z,9.80
2018-01-26T22:08:53.797Z,9.90
2018-01-26T22:11:23.449Z,9.80
2018-01-26T22:13:52.139Z,9.80
2018-01-26T22:16:20.726Z,9.80
2018-01-26T22:18:49.427Z,9.70
2018-01-26T22:21:18.103Z,9.80
2018-01-26T22:23:46.952Z,9.80
2018-01-26T22:26:15.632Z,9.80
2018-01-26T22:28:44.463Z,9.80
2018-01-26T22:31:14.022Z,9.80
2018-01-26T22:33:42.913Z,9.80
2018-01-26T22:36:11.753Z,9.80
2018-01-26T22:38:40.440Z,9.90
2018-01-26T22:41:09.079Z,9.90
2018-01-26T22:43:37.911Z,9.90
2018-01-26T22:46:06.695Z,9.90
2018-01-26T22:48:35.319Z,9.90
2018-01-26T22:51:04.169Z,9.90
2018-01-26T22:53:32.780Z,9.90
2018-01-26T22:56:01.417Z,9.90
2018-01-26T22:58:30.843Z,9.90
2018-01-26T23:00:59.527Z,9.90
2018-01-26T23:03:28.110Z,9.90
2018-01-26T23:05:56.795Z,9.90
2018-01-26T23:08:25.428Z,9.90
2018-01-26T23:10:54.273Z,9.90
2018-01-26T23:13:23.177Z,9.90
2018-01-26T23:15:51.750Z,9.90
2018-01-26T23:18:20.622Z,9.90
2018-01-26T23:20:49.271Z,9.90
2018-01-26T23:23:17.849Z,9.90
2018-01-26T23:25:46.505Z,9.90
2018-01-26T23:28:15.127Z,9.90
2018-01-26T23:30:43.868Z,9.90
2018-01-26T23:33:12.444Z,9.90
2018-01-26T23:35:41.056Z,9.90
2018-01-26T23:38:09.630Z,9.90
2018-01-26T23:40:38.293Z,9.90
2018-01-26T23:43:07.091Z,10.00
2018-01-26T23:45:35.988Z,10.00
2018-01-26T23:48:04.832Z,10.00
2018-01-26T23:50:33.474Z,10.10
2018-01-26T23:53:02.456Z,10.10
2018-01-26T23:55:31.138Z,10.10
2018-01-26T23:57:59.830Z,10.00
